Time;durP1;ratioP1;P1;durP2;ratioP2;P2;SDS_P1;SDS_P2;PMS_P1;PMS_P2;Temp;Humidity;BMP_temperature;BMP_pressure;BME280_temperature;BME280_humidity;BME280_pressure;Samples;Min_cycle;Max_cycle;Signal;HPM_P1;HPM_P2
2023/05/27 00:01:24;;;;;;;11.57;4.40;;;13.70;71.20;;;16.49;49.21;102948.38;5054078;28;20281;-62
2023/05/27 00:03:51;;;;;;;15.37;4.63;;;13.60;70.90;;;16.48;49.81;102947.53;5053622;28;20574;-62
2023/05/27 00:06:19;;;;;;;11.83;3.83;;;13.70;71.60;;;16.48;50.17;102944.03;5054113;28;20189;-63
2023/05/27 00:08:46;;;;;;;12.40;4.47;;;13.70;72.50;;;16.45;49.78;102942.53;5053188;28;20562;-62
2023/05/27 00:11:14;;;;;;;11.67;5.27;;;13.70;71.90;;;16.44;50.12;102934.72;5054281;28;20282;-63
2023/05/27 00:13:41;;;;;;;14.07;4.20;;;13.60;71.90;;;16.43;50.16;102938.34;5054387;28;20487;-64
2023/05/27 00:16:08;;;;;;;18.00;5.10;;;13.60;72.00;;;16.42;49.97;102936.72;5053589;28;20579;-63
2023/05/27 00:18:36;;;;;;;9.97;4.10;;;13.60;72.00;;;16.42;50.23;102936.72;5054177;28;20248;-64
2023/05/27 00:21:04;;;;;;;12.07;4.17;;;13.60;72.30;;;16.42;50.14;102940.22;5053773;28;20272;-64
2023/05/27 00:23:34;;;;;;;19.97;4.93;;;13.60;72.50;;;16.44;50.60;102929.41;5049032;28;20209;-66
2023/05/27 00:26:01;;;;;;;17.97;4.43;;;13.60;72.50;;;16.47;50.84;102939.72;5034509;28;20691;-64
2023/05/27 00:28:31;;;;;;;10.57;4.83;;;13.60;72.70;;;16.51;50.32;102941.06;5033407;28;20281;-64
2023/05/27 00:30:58;;;;;;;10.17;4.03;;;13.70;72.60;;;16.56;50.29;102938.81;5049159;28;20221;-65
2023/05/27 00:33:25;;;;;;;12.93;3.97;;;13.70;72.40;;;16.59;50.52;102939.28;5052800;28;20264;-64
2023/05/27 00:35:52;;;;;;;12.47;4.37;;;13.80;72.60;;;16.64;50.74;102936.19;5053811;28;20221;-65
2023/05/27 00:38:19;;;;;;;9.87;4.30;;;13.90;72.50;;;16.70;50.27;102938.19;5052405;28;20301;-63
2023/05/27 00:40:46;;;;;;;13.20;4.90;;;13.90;72.10;;;16.76;50.38;102934.88;5034190;28;20709;-62
2023/05/27 00:43:13;;;;;;;15.43;4.47;;;14.00;72.00;;;16.80;50.10;102936.25;5033332;28;20230;-63
2023/05/27 00:45:41;;;;;;;11.83;3.83;;;14.00;71.80;;;16.83;49.50;102938.56;5033999;28;20214;-63
2023/05/27 00:48:09;;;;;;;12.17;4.57;;;14.00;71.30;;;16.81;49.89;102932.56;5033884;28;20222;-64
2023/05/27 00:50:38;;;;;;;11.90;4.00;;;14.10;71.60;;;16.82;49.76;102929.78;5041437;28;20220;-67
2023/05/27 00:53:05;;;;;;;11.63;3.90;;;14.10;71.30;;;16.80;50.10;102928.25;5035038;28;20197;-63
2023/05/27 00:55:32;;;;;;;11.53;3.47;;;14.00;71.40;;;16.80;49.82;102920.28;5053720;28;20248;-64
2023/05/27 00:57:59;;;;;;;14.53;4.00;;;14.00;71.30;;;16.77;49.85;102929.41;5056736;28;20232;-65
2023/05/27 01:00:27;;;;;;;10.17;4.27;;;14.00;71.20;;;16.76;49.81;102919.75;5056523;28;20690;-63
2023/05/27 01:02:55;;;;;;;9.43;3.20;;;14.00;71.50;;;16.77;50.04;102920.59;5040933;28;20213;-64
2023/05/27 01:05:23;;;;;;;9.70;4.07;;;14.00;71.50;;;16.78;50.05;102911.63;5049210;28;20205;-65
2023/05/27 01:08:07;;;;;;;11.77;3.97;;;14.00;71.70;;;16.78;50.10;102916.97;5064103;28;20670;-65
2023/05/27 01:10:43;;;;;;;11.73;4.53;;;14.00;71.70;;;16.82;50.05;102923.63;5067324;28;20224;-64
2023/05/27 01:13:19;;;;;;;11.27;3.80;;;14.10;71.70;;;16.85;49.95;102920.63;5065486;28;20269;-64
2023/05/27 01:15:49;;;;;;;10.97;4.43;;;14.10;71.30;;;16.85;49.82;102915.31;5050813;28;20264;-63
2023/05/27 01:18:22;;;;;;;12.27;3.67;;;14.10;71.10;;;16.80;49.50;102914.97;5046272;28;20194;-63
2023/05/27 01:20:59;;;;;;;19.30;4.97;;;14.10;71.00;;;16.72;49.19;102915.75;5045492;28;20754;-64
2023/05/27 01:23:27;;;;;;;9.77;4.13;;;14.00;70.80;;;16.63;49.58;102918.56;5044986;28;20236;-63
2023/05/27 01:25:54;;;;;;;8.70;3.93;;;13.90;71.20;;;16.54;49.95;102919.53;5045535;28;20226;-64
2023/05/27 01:28:21;;;;;;;8.73;4.00;;;13.80;71.80;;;16.50;50.05;102918.13;5044778;28;20281;-64
2023/05/27 01:30:51;;;;;;;15.53;4.73;;;13.70;71.90;;;16.47;50.55;102913.13;5040288;28;20226;-67
2023/05/27 01:33:25;;;;;;;11.83;4.17;;;13.70;72.30;;;16.44;50.85;102924.09;5049328;28;20270;-64
2023/05/27 01:36:00;;;;;;;11.47;3.80;;;13.60;72.50;;;16.45;50.70;102923.91;5059011;28;20249;-62
2023/05/27 01:38:32;;;;;;;12.80;4.23;;;13.70;72.50;;;16.43;50.58;102919.75;5060644;28;20260;-64
2023/05/27 01:41:00;;;;;;;10.33;4.13;;;13.70;72.60;;;16.40;50.18;102922.75;5060123;28;20697;-65
2023/05/27 01:43:28;;;;;;;8.70;3.87;;;13.60;72.30;;;16.35;50.57;102925.03;5059902;28;20324;-64
2023/05/27 01:45:56;;;;;;;11.83;3.90;;;13.60;72.80;;;16.34;50.84;102923.38;5051892;28;20619;-62
2023/05/27 01:48:23;;;;;;;13.23;4.60;;;13.50;73.10;;;16.35;51.05;102919.72;5052898;28;20208;-65
2023/05/27 01:50:50;;;;;;;10.63;3.57;;;13.60;73.00;;;16.37;51.13;102917.75;5057153;28;20205;-63
2023/05/27 01:53:17;;;;;;;9.50;4.10;;;13.60;73.10;;;16.38;51.35;102916.75;5059614;28;20190;-65
2023/05/27 01:55:46;;;;;;;9.50;3.63;;;13.60;73.30;;;16.40;51.40;102912.97;5060220;28;20263;-64
2023/05/27 01:58:13;;;;;;;11.17;4.40;;;13.60;73.30;;;16.39;51.17;102907.78;5060128;28;20289;-62
2023/05/27 02:00:40;;;;;;;12.73;4.47;;;13.60;73.30;;;16.41;51.27;102919.09;5053464;28;20222;-63
2023/05/27 02:03:07;;;;;;;12.87;4.23;;;13.60;73.50;;;16.42;51.15;102903.00;5056837;28;20731;-64
2023/05/27 02:05:35;;;;;;;9.63;3.93;;;13.60;73.20;;;16.46;51.40;102906.16;5056038;28;20331;-64
2023/05/27 02:08:02;;;;;;;10.03;4.60;;;13.70;73.30;;;16.50;51.19;102907.47;5060241;28;20194;-63
2023/05/27 02:10:29;;;;;;;11.97;4.63;;;13.70;73.10;;;16.53;51.32;102904.53;5060895;28;20264;-65
2023/05/27 02:12:58;;;;;;;11.53;4.57;;;13.80;72.90;;;16.54;50.90;102909.72;5051184;28;20200;-64
2023/05/27 02:15:26;;;;;;;9.17;3.80;;;13.80;72.70;;;16.57;50.89;102904.06;5059224;28;20293;-62
2023/05/27 02:17:55;;;;;;;14.23;4.43;;;13.80;72.60;;;16.60;50.88;102914.38;5043896;28;20206;-64
2023/05/27 02:20:23;;;;;;;11.87;4.77;;;13.90;72.70;;;16.62;50.83;102907.06;5045958;28;20615;-65
2023/05/27 02:22:51;;;;;;;11.43;4.17;;;13.90;72.60;;;16.63;50.85;102906.09;5054595;28;20216;-63
2023/05/27 02:25:18;;;;;;;12.97;5.30;;;13.90;72.40;;;16.61;50.95;102901.94;5052748;28;20284;-63
2023/05/27 02:27:48;;;;;;;11.07;4.33;;;13.90;72.40;;;16.61;50.87;102902.78;5056343;28;20194;-64
2023/05/27 02:30:16;;;;;;;13.47;4.17;;;13.90;72.40;;;16.63;50.71;102902.59;5056322;28;20240;-63
2023/05/27 02:32:43;;;;;;;11.00;3.83;;;13.90;72.40;;;16.65;50.85;102895.28;5056570;28;20221;-63
2023/05/27 02:35:14;;;;;;;10.63;4.10;;;14.00;72.40;;;16.66;50.52;102895.13;5051477;28;20762;-63
2023/05/27 02:37:41;;;;;;;11.23;4.07;;;14.00;72.20;;;16.68;50.68;102885.19;5056304;28;20198;-63
2023/05/27 02:40:09;;;;;;;10.73;3.80;;;14.00;71.90;;;16.72;50.56;102891.00;5056300;28;20622;-63
2023/05/27 02:42:36;;;;;;;10.17;4.10;;;14.00;71.90;;;16.73;50.63;102876.72;5055899;28;20212;-63
2023/05/27 02:45:04;;;;;;;14.03;4.90;;;14.00;71.90;;;16.72;50.24;102880.34;5054914;28;20269;-64
2023/05/27 02:47:33;;;;;;;10.23;3.77;;;14.00;71.80;;;16.71;50.11;102890.16;5052076;28;20270;-63
2023/05/27 02:50:00;;;;;;;10.27;4.20;;;14.00;72.00;;;16.72;50.38;102896.31;5035792;28;20190;-64
2023/05/27 02:52:27;;;;;;;10.50;4.70;;;14.00;72.00;;;16.71;49.76;102900.78;5036117;28;20213;-63
2023/05/27 02:54:54;;;;;;;8.93;3.60;;;14.00;71.50;;;16.67;50.46;102890.63;5034328;28;20237;-63
2023/05/27 02:57:21;;;;;;;10.57;3.67;;;13.90;71.90;;;16.64;50.42;102893.63;5035901;28;20601;-63
2023/05/27 02:59:48;;;;;;;14.73;4.77;;;13.90;72.10;;;16.62;50.54;102896.44;5035939;28;20190;-63
2023/05/27 03:02:15;;;;;;;13.43;4.17;;;13.90;72.30;;;16.64;50.34;102910.41;5045449;28;20260;-64
2023/05/27 03:04:44;;;;;;;8.63;3.77;;;13.90;72.00;;;16.61;50.14;102908.09;5044919;28;20223;-63
2023/05/27 03:07:11;;;;;;;9.67;4.27;;;13.90;72.20;;;16.57;49.91;102909.38;5054985;28;20562;-64
2023/05/27 03:09:38;;;;;;;8.47;4.40;;;13.80;71.60;;;16.51;50.49;102912.69;5055490;28;20220;-63
2023/05/27 03:12:05;;;;;;;13.37;5.20;;;13.80;72.20;;;16.49;50.42;102911.16;5054964;28;20224;-64
2023/05/27 03:14:33;;;;;;;13.00;4.23;;;13.70;72.00;;;16.44;50.59;102902.81;5054681;28;20636;-63
2023/05/27 03:17:00;;;;;;;10.10;4.40;;;13.70;72.30;;;16.43;50.63;102909.13;5055109;28;20618;-63
2023/05/27 03:19:27;;;;;;;9.63;4.07;;;13.70;72.90;;;16.41;50.66;102903.13;5055222;28;20228;-63
2023/05/27 03:21:55;;;;;;;13.20;4.73;;;13.60;72.80;;;16.43;50.92;102901.13;5054637;28;20616;-63
2023/05/27 03:24:23;;;;;;;12.10;4.73;;;13.70;72.80;;;16.44;50.85;102902.81;5055306;28;20301;-63
2023/05/27 03:26:50;;;;;;;8.67;4.43;;;13.70;72.60;;;16.41;50.69;102903.97;5055241;28;20190;-63
2023/05/27 03:29:17;;;;;;;10.77;4.10;;;13.70;72.90;;;16.40;51.12;102899.66;5055220;28;20650;-65
2023/05/27 03:31:44;;;;;;;12.40;4.43;;;13.70;72.60;;;16.37;50.64;102902.63;5052291;28;20221;-64
2023/05/27 03:34:11;;;;;;;13.30;4.60;;;13.60;72.50;;;16.36;50.91;102902.78;5039239;28;20752;-63
2023/05/27 03:36:38;;;;;;;8.03;3.90;;;13.60;72.40;;;16.35;50.76;102906.44;5053929;28;20186;-63
2023/05/27 03:39:06;;;;;;;14.00;4.07;;;13.60;72.60;;;16.34;51.04;102904.75;5041384;28;20206;-64
2023/05/27 03:41:34;;;;;;;11.13;4.07;;;13.50;72.90;;;16.34;51.20;102902.09;5035295;28;20278;-63
2023/05/27 03:44:02;;;;;;;10.80;3.53;;;13.50;73.20;;;16.37;51.05;102901.78;5034400;28;20558;-63
2023/05/27 03:46:29;;;;;;;9.90;4.53;;;13.60;73.20;;;16.37;51.28;102896.47;5035013;28;20554;-63
2023/05/27 03:48:56;;;;;;;10.40;4.40;;;13.60;73.10;;;16.38;50.94;102896.31;5034987;28;20183;-61
2023/05/27 03:51:24;;;;;;;10.83;4.93;;;13.60;72.80;;;16.39;51.08;102905.13;5034934;28;20195;-64
2023/05/27 03:53:51;;;;;;;11.30;3.87;;;13.70;72.90;;;16.40;50.66;102898.81;5054078;28;20635;-63
2023/05/27 03:56:20;;;;;;;11.00;3.87;;;13.60;72.80;;;16.43;50.77;102898.47;5054663;28;20232;-64
2023/05/27 03:58:49;;;;;;;9.50;4.13;;;13.70;72.70;;;16.43;50.40;102901.13;5054657;28;20508;-64
2023/05/27 04:01:23;;;;;;;13.10;4.10;;;13.60;72.10;;;16.37;50.34;102904.44;5054516;28;20646;-64
2023/05/27 04:03:50;;;;;;;12.03;4.70;;;13.60;72.50;;;16.33;51.02;102908.44;5050685;28;20234;-64
2023/05/27 04:06:18;;;;;;;14.63;4.90;;;13.50;73.10;;;16.33;51.36;102901.25;5054637;28;20222;-63
2023/05/27 04:08:45;;;;;;;10.63;3.77;;;13.50;73.10;;;16.34;51.22;102888.81;5054174;28;20198;-63
2023/05/27 04:11:12;;;;;;;12.57;4.50;;;13.50;73.30;;;16.37;50.90;102907.09;5054704;28;20229;-63
2023/05/27 04:13:41;;;;;;;9.97;4.47;;;13.60;73.10;;;16.38;50.97;102906.13;5053530;28;20198;-63
2023/05/27 04:16:08;;;;;;;9.23;3.50;;;13.60;73.00;;;16.40;51.12;102909.47;5054145;28;20241;-64
2023/05/27 04:18:35;;;;;;;10.07;4.37;;;13.60;73.20;;;16.42;51.42;102902.16;5054274;28;20690;-63
2023/05/27 04:21:02;;;;;;;12.10;4.40;;;13.60;73.20;;;16.45;50.91;102899.19;5054050;28;20745;-63
2023/05/27 04:23:29;;;;;;;13.03;5.07;;;13.70;73.10;;;16.49;50.92;102905.84;5053133;28;20213;-63
2023/05/27 04:25:56;;;;;;;12.33;5.50;;;13.70;72.90;;;16.53;51.05;102907.19;5054265;28;20284;-64
2023/05/27 04:28:23;;;;;;;14.73;5.07;;;13.70;72.90;;;16.58;50.77;102903.09;5054364;28;20713;-64
2023/05/27 04:31:00;;;;;;;14.33;5.33;;;13.80;72.80;;;16.62;50.55;102911.56;5054226;28;20621;-67
2023/05/27 04:33:28;;;;;;;10.53;4.13;;;13.80;72.80;;;16.62;49.92;102911.56;5023807;28;20560;-64
2023/05/27 04:35:56;;;;;;;9.03;4.37;;;13.80;72.50;;;16.59;50.79;102902.06;5037762;28;20301;-64
2023/05/27 04:38:23;;;;;;;10.90;4.23;;;13.80;72.60;;;16.59;50.91;102902.06;5033974;28;20230;-63
2023/05/27 04:40:56;;;;;;;14.43;4.80;;;13.80;72.70;;;16.61;50.36;102901.94;5033340;28;20186;-64
2023/05/27 04:43:23;;;;;;;11.93;5.10;;;13.80;72.50;;;16.59;50.64;102906.59;5042839;28;20220;-62
2023/05/27 04:45:50;;;;;;;13.83;5.03;;;13.80;72.60;;;16.59;50.47;102906.59;5036730;28;20252;-62
2023/05/27 04:48:23;;;;;;;10.80;4.73;;;13.80;72.60;;;16.62;50.38;102898.25;5033583;28;20281;-64
2023/05/27 04:50:53;;;;;;;13.13;4.60;;;13.70;72.50;;;16.58;50.39;102904.91;5034182;28;20627;-64
2023/05/27 04:53:20;;;;;;;8.10;4.40;;;13.70;72.30;;;16.50;49.95;102896.84;5046424;28;20232;-62
2023/05/27 04:55:47;;;;;;;11.47;4.70;;;13.60;72.30;;;16.44;50.67;102897.50;5053815;28;20256;-64
2023/05/27 04:58:14;;;;;;;12.43;4.90;;;13.60;72.80;;;16.43;50.87;102899.31;5053708;28;20213;-62
2023/05/27 05:00:52;;;;;;;10.40;4.40;;;13.60;73.10;;;16.45;50.59;102905.31;5053553;28;20611;-64
2023/05/27 05:03:21;;;;;;;16.03;4.80;;;13.60;73.20;;;16.46;51.22;102890.19;5051875;28;20197;-63
2023/05/27 05:05:51;;;;;;;11.43;4.13;;;13.60;73.60;;;16.52;51.22;102882.44;5044745;28;20217;-64
2023/05/27 05:08:18;;;;;;;11.40;5.17;;;13.60;73.70;;;16.58;51.00;102891.59;5053417;28;20189;-64
2023/05/27 05:10:47;;;;;;;10.70;4.07;;;13.70;73.70;;;16.65;51.23;102887.31;5053875;28;20520;-64
2023/05/27 05:13:16;;;;;;;11.13;4.67;;;13.70;73.40;;;16.70;50.72;102890.31;5052714;28;20196;-64
2023/05/27 05:15:46;;;;;;;10.10;4.57;;;13.80;73.00;;;16.72;50.41;102897.16;5053382;28;20870;-62
2023/05/27 05:18:13;;;;;;;11.83;5.00;;;13.80;73.00;;;16.76;50.61;102893.16;5053579;28;20243;-64
2023/05/27 05:20:41;;;;;;;9.90;5.03;;;13.90;73.00;;;16.78;50.52;102893.03;5053701;28;20210;-63
2023/05/27 05:23:09;;;;;;;9.37;4.77;;;13.90;73.10;;;16.80;50.12;102889.19;5052387;28;20198;-64
2023/05/27 05:25:37;;;;;;;11.33;4.97;;;13.90;72.70;;;16.80;50.04;102891.03;5053379;28;20232;-64
2023/05/27 05:28:05;;;;;;;12.27;4.63;;;13.90;72.40;;;16.77;50.08;102894.00;5053263;28;20205;-68
2023/05/27 05:30:32;;;;;;;10.97;5.17;;;13.90;72.80;;;16.78;50.17;102890.34;5052973;28;20216;-65
2023/05/27 05:33:00;;;;;;;11.93;5.57;;;13.80;72.80;;;16.77;50.38;102891.34;5039160;28;20273;-63
2023/05/27 05:35:27;;;;;;;11.87;4.73;;;13.80;72.70;;;16.71;50.19;102884.03;5039650;28;20305;-63
2023/05/27 05:37:55;;;;;;;11.07;4.80;;;13.80;73.00;;;16.69;50.48;102891.31;5033297;28;20233;-63
2023/05/27 05:40:23;;;;;;;9.27;4.47;;;13.70;72.90;;;16.66;50.20;102889.00;5033429;28;20625;-64
2023/05/27 05:42:50;;;;;;;11.03;4.53;;;13.70;73.10;;;16.63;50.29;102891.97;5043415;28;20520;-65
2023/05/27 05:45:17;;;;;;;12.73;4.43;;;13.70;73.30;;;16.60;50.58;102889.63;5034424;28;20300;-64
2023/05/27 05:47:44;;;;;;;10.70;5.00;;;13.60;73.40;;;16.59;50.24;102888.78;5032653;28;20247;-64
2023/05/27 05:50:11;;;;;;;14.60;5.33;;;13.60;73.60;;;16.59;50.72;102899.41;5033448;28;20262;-64
2023/05/27 05:52:38;;;;;;;12.70;5.00;;;13.60;74.00;;;16.65;50.93;102889.97;5046506;28;20274;-64
2023/05/27 05:55:07;;;;;;;9.80;4.70;;;13.60;74.20;;;16.72;51.10;102891.00;5037699;28;20238;-64
2023/05/27 05:57:34;;;;;;;13.13;4.60;;;13.70;74.50;;;16.81;50.87;102890.84;5051947;28;20566;-64
2023/05/27 06:00:03;;;;;;;12.90;4.80;;;13.70;74.10;;;16.90;50.46;102889.06;5057173;28;20198;-64
2023/05/27 06:02:30;;;;;;;8.70;4.23;;;13.80;74.10;;;16.99;50.39;102898.72;5049343;28;20207;-65
2023/05/27 06:04:58;;;;;;;10.23;4.37;;;13.90;74.10;;;17.09;50.45;102896.72;5056079;28;20241;-64
2023/05/27 06:07:25;;;;;;;12.03;4.47;;;14.00;73.70;;;17.21;50.20;102897.25;5056503;28;20228;-64
2023/05/27 06:09:51;;;;;;;10.63;4.37;;;14.10;73.70;;;17.32;49.60;102899.59;5056600;28;20256;-64
2023/05/27 06:12:20;;;;;;;13.27;5.07;;;14.30;72.70;;;17.37;49.45;102898.09;5055658;28;20225;-64
2023/05/27 06:14:47;;;;;;;12.77;5.07;;;14.40;72.10;;;17.42;49.10;102894.94;5056078;28;20272;-64
2023/05/27 06:17:14;;;;;;;7.93;4.50;;;14.40;71.70;;;17.46;48.82;102897.09;5056362;28;20186;-64
2023/05/27 06:19:41;;;;;;;10.27;5.07;;;14.40;71.30;;;17.48;48.63;102895.09;5056667;28;20197;-63
2023/05/27 06:22:08;;;;;;;9.73;4.07;;;14.50;71.20;;;17.52;48.70;102895.63;5046827;28;20241;-62
2023/05/27 06:24:35;;;;;;;9.07;4.57;;;14.50;71.30;;;17.60;48.67;102882.31;5055437;28;20304;-64
2023/05/27 06:27:02;;;;;;;12.73;4.33;;;14.50;71.30;;;17.65;48.72;102890.63;5056127;28;20307;-64
2023/05/27 06:29:30;;;;;;;10.57;4.50;;;14.60;71.00;;;17.70;48.34;102887.47;5056255;28;20185;-64
2023/05/27 06:31:57;;;;;;;9.67;4.07;;;14.70;70.90;;;17.75;48.35;102887.78;5044841;28;20195;-64
2023/05/27 06:34:24;;;;;;;8.03;4.57;;;14.70;70.80;;;17.81;48.26;102879.94;5054586;28;20580;-63
2023/05/27 06:36:51;;;;;;;13.93;4.90;;;14.80;70.80;;;17.90;48.16;102883.44;5055106;28;20248;-64
2023/05/27 06:39:18;;;;;;;12.47;6.73;;;14.80;70.80;;;18.04;47.89;102877.41;5055959;28;20204;-62
2023/05/27 06:41:45;;;;;;;11.70;4.50;;;14.90;70.80;;;18.14;47.75;102876.22;5049864;28;20220;-64
2023/05/27 06:44:12;;;;;;;10.13;5.33;;;15.00;70.40;;;18.24;47.63;102870.69;5035288;28;20223;-64
2023/05/27 06:46:41;;;;;;;11.67;4.60;;;15.10;70.20;;;18.35;47.27;102872.94;5046638;28;20194;-64
2023/05/27 06:49:08;;;;;;;7.63;4.10;;;15.20;69.80;;;18.46;47.14;102874.47;5055307;28;20213;-64
2023/05/27 06:51:35;;;;;;;9.40;5.13;;;15.30;69.80;;;18.55;46.97;102874.25;5044982;28;20195;-64
2023/05/27 06:54:02;;;;;;;15.07;7.87;;;15.40;69.80;;;18.67;46.94;102864.84;5051661;28;20327;-65
2023/05/27 06:56:30;;;;;;;9.47;4.53;;;15.50;69.60;;;18.79;46.54;102874.13;5055666;28;20220;-64
2023/05/27 06:58:57;;;;;;;11.60;5.23;;;15.60;69.10;;;18.85;46.41;102876.06;5054009;28;20193;-64
2023/05/27 07:01:24;;;;;;;12.20;4.97;;;15.70;68.80;;;18.90;46.36;102872.88;5049480;28;20207;-64
2023/05/27 07:03:53;;;;;;;8.57;3.77;;;15.80;68.40;;;18.99;46.37;102866.50;5049428;28;20204;-63
2023/05/27 07:06:20;;;;;;;12.30;5.30;;;15.90;68.50;;;19.08;45.93;102861.91;5047988;28;20241;-64
2023/05/27 07:08:47;;;;;;;9.90;3.83;;;16.00;68.10;;;19.15;46.15;102857.53;5054823;28;20221;-65
2023/05/27 07:11:14;;;;;;;13.97;4.30;;;16.00;68.00;;;19.25;45.71;102852.78;5049407;28;20202;-62
2023/05/27 07:13:41;;;;;;;10.37;5.33;;;16.10;67.90;;;19.37;45.76;102854.03;5034794;28;20213;-63
2023/05/27 07:16:08;;;;;;;10.33;4.97;;;16.20;67.80;;;19.49;45.13;102848.06;5054401;28;20645;-63
2023/05/27 07:18:35;;;;;;;10.70;4.60;;;16.30;67.50;;;19.56;44.94;102842.84;5055211;28;20635;-64
2023/05/27 07:21:03;;;;;;;9.30;4.20;;;16.40;66.90;;;19.65;44.98;102841.75;5051939;28;20229;-65
2023/05/27 07:23:30;;;;;;;13.43;4.77;;;16.50;66.90;;;19.70;44.36;102850.06;5054410;28;20284;-64
2023/05/27 07:25:57;;;;;;;10.57;5.00;;;16.60;66.10;;;19.65;44.40;102841.75;5054439;28;20729;-64
2023/05/27 07:28:24;;;;;;;10.00;4.23;;;16.70;65.90;;;19.69;44.91;102842.19;5054996;28;20194;-64
2023/05/27 07:30:51;;;;;;;11.93;4.50;;;16.70;66.00;;;19.69;44.74;102836.84;5048482;28;20289;-63
2023/05/27 07:33:19;;;;;;;12.40;4.43;;;16.70;65.60;;;19.74;44.38;102846.00;5053287;28;20190;-65
2023/05/27 07:35:46;;;;;;;8.23;4.73;;;16.80;65.60;;;19.86;44.62;102839.19;5052969;28;20218;-65
2023/05/27 07:38:14;;;;;;;11.50;5.20;;;16.80;65.70;;;20.04;44.13;102836.97;5053287;28;20217;-64
2023/05/27 07:40:41;;;;;;;11.87;4.93;;;16.90;65.60;;;20.18;44.14;102838.78;5053515;28;20192;-63
2023/05/27 07:43:08;;;;;;;10.50;4.87;;;17.00;65.20;;;20.27;43.89;102842.25;5053535;28;20205;-64
2023/05/27 07:45:35;;;;;;;11.40;4.97;;;17.10;64.80;;;20.32;43.77;102833.66;5054141;28;20253;-65
2023/05/27 07:48:02;;;;;;;15.13;5.97;;;17.30;64.80;;;20.35;43.34;102825.28;5053907;28;20194;-64
2023/05/27 07:50:29;;;;;;;11.97;6.70;;;17.30;64.30;;;20.37;43.78;102832.09;5054257;28;20204;-64
2023/05/27 07:52:56;;;;;;;11.93;6.57;;;17.40;64.30;;;20.46;43.78;102833.63;5036595;28;20197;-64
2023/05/27 07:55:25;;;;;;;9.57;4.83;;;17.50;64.20;;;20.58;43.14;102823.28;5033872;28;20632;-65
2023/05/27 07:57:53;;;;;;;12.57;7.00;;;17.50;64.30;;;20.72;42.62;102833.09;5034463;28;20357;-64
2023/05/27 08:00:20;;;;;;;13.43;5.20;;;17.60;63.90;;;20.80;42.89;102833.78;5034014;28;20277;-65
2023/05/27 08:02:47;;;;;;;12.97;5.43;;;17.70;63.20;;;20.84;42.94;102823.56;5052066;28;20718;-66
2023/05/27 08:05:15;;;;;;;12.27;6.43;;;17.80;63.10;;;21.20;42.92;102821.66;5054109;28;20217;-64
2023/05/27 08:07:42;;;;;;;14.20;5.57;;;17.90;63.60;;;22.16;41.41;102826.22;5053842;28;20197;-65
2023/05/27 08:10:09;;;;;;;9.67;4.47;;;18.20;64.10;;;23.48;39.64;102817.44;5054111;28;20194;-65
2023/05/27 08:12:38;;;;;;;14.07;4.97;;;18.60;64.10;;;24.84;36.99;102819.84;5053635;28;20729;-62
2023/05/27 08:15:06;;;;;;;9.43;4.43;;;19.30;62.90;;;26.09;35.11;102819.47;5052298;28;20217;-63
2023/05/27 08:17:33;;;;;;;9.07;4.57;;;20.00;59.80;;;27.01;33.67;102813.63;5053791;28;20710;-63
2023/05/27 08:20:01;;;;;;;9.37;4.23;;;20.80;58.70;;;28.03;32.02;102810.34;5053323;28;20205;-64
2023/05/27 08:22:29;;;;;;;11.17;4.20;;;21.50;56.90;;;29.15;30.87;102807.78;5040476;28;20281;-63
2023/05/27 08:24:56;;;;;;;10.03;5.30;;;22.30;56.30;;;29.96;29.16;102807.91;5033575;28;20722;-63
2023/05/27 08:27:44;;;;;;;5.30;3.90;;;23.00;52.90;;;30.61;27.34;102799.69;5033962;28;20690;-64
2023/05/27 08:30:13;;;;;;;9.10;4.03;;;23.90;50.80;;;30.91;26.96;102792.88;5033894;28;20722;-61
2023/05/27 08:32:41;;;;;;;9.83;4.63;;;24.40;48.50;;;31.43;26.19;102791.09;5046200;28;20259;-63
2023/05/27 08:35:08;;;;;;;11.60;5.77;;;24.90;46.20;;;31.89;25.19;102789.41;5052322;28;20271;-64
2023/05/27 08:37:36;;;;;;;10.07;4.27;;;25.40;45.60;;;32.41;25.11;102792.00;5053171;28;20617;-64
2023/05/27 08:40:07;;;;;;;10.90;5.10;;;25.80;44.30;;;32.94;23.57;102786.06;5052270;28;20189;-64
2023/05/27 08:42:34;;;;;;;8.33;4.20;;;26.20;41.70;;;33.14;24.05;102788.00;5052677;28;20747;-63
2023/05/27 08:45:05;;;;;;;9.47;5.20;;;26.60;42.30;;;33.42;23.02;102792.84;5052402;28;20255;-65
2023/05/27 08:47:32;;;;;;;14.83;7.27;;;26.90;39.50;;;33.93;23.03;102786.09;5053163;28;20507;-65
2023/05/27 08:49:59;;;;;;;11.50;5.07;;;27.20;39.80;;;34.52;22.46;102791.47;5053960;28;20551;-65
2023/05/27 08:52:28;;;;;;;10.00;4.77;;;27.50;38.50;;;35.15;22.34;102780.56;5042036;28;20681;-65
2023/05/27 08:54:57;;;;;;;7.53;5.57;;;27.90;39.00;;;35.70;21.64;102779.16;5033535;28;20333;-70
2023/05/27 08:57:29;;;;;;;9.97;5.40;;;28.40;37.90;;;35.96;20.43;102770.28;5032905;28;20658;-65
2023/05/27 08:59:57;;;;;;;9.33;5.77;;;28.70;34.70;;;36.09;20.01;102771.47;5033045;28;20249;-63
2023/05/27 09:02:28;;;;;;;10.77;4.97;;;29.00;35.00;;;36.17;19.96;102767.25;5039605;28;20530;-65
2023/05/27 09:04:55;;;;;;;9.80;4.63;;;29.40;34.70;;;36.37;19.91;102758.72;5040625;28;20260;-64
2023/05/27 09:07:23;;;;;;;14.83;9.80;;;29.60;34.20;;;36.78;20.13;102770.66;5052913;28;20194;-64
2023/05/27 09:09:57;;;;;;;11.27;5.35;;;29.80;34.20;;;36.97;18.21;102762.38;5053191;28;20281;-64
2023/05/27 09:12:25;;;;;;;11.03;4.27;;;29.90;31.10;;;36.71;18.15;102767.50;5052479;28;20196;-65
2023/05/27 09:14:56;;;;;;;9.23;6.37;;;30.10;30.20;;;36.69;18.61;102758.75;5041441;28;20308;-66
2023/05/27 09:17:25;;;;;;;11.37;7.33;;;30.10;30.00;;;36.11;18.38;102758.31;5051927;28;20221;-63
2023/05/27 09:19:54;;;;;;;8.07;4.50;;;29.90;29.40;;;35.12;18.37;102756.50;5052962;28;20594;-65
2023/05/27 09:22:23;;;;;;;7.27;4.27;;;29.70;28.90;;;34.60;18.98;102752.59;5052177;28;20190;-65
2023/05/27 09:24:53;;;;;;;8.03;4.93;;;29.40;28.90;;;34.79;19.11;102747.22;5052647;28;20827;-64
2023/05/27 09:27:25;;;;;;;13.32;9.23;;;29.20;29.60;;;35.61;19.05;102743.31;5055268;28;20210;-64
2023/05/27 09:29:52;;;;;;;10.53;6.30;;;29.20;30.00;;;36.46;18.43;102754.22;5056732;28;20257;-64
2023/05/27 09:32:30;;;;;;;9.90;4.93;;;29.40;30.30;;;37.29;17.32;102745.81;5047648;28;20667;-64
2023/05/27 09:34:58;;;;;;;8.68;5.05;;;29.70;29.80;;;37.61;17.57;102742.16;5047341;28;20574;-64
2023/05/27 09:37:25;;;;;;;10.48;5.78;;;30.10;29.80;;;37.81;17.22;102748.03;5056495;28;20221;-64
2023/05/27 09:39:52;;;;;;;10.55;5.38;;;30.30;29.50;;;37.13;16.43;102747.25;5056517;28;20280;-65
2023/05/27 09:42:20;;;;;;;11.00;5.18;;;30.30;27.10;;;36.81;17.30;102734.38;5043968;28;20754;-66
2023/05/27 09:44:48;;;;;;;8.18;4.25;;;30.40;28.10;;;37.22;17.09;102735.25;5036110;28;20245;-64
2023/05/27 09:47:17;;;;;;;10.93;5.05;;;30.40;28.70;;;38.00;16.95;102734.13;5036740;28;20643;-64
2023/05/27 09:49:49;;;;;;;8.48;5.45;;;30.60;29.00;;;38.82;16.41;102725.50;5036936;28;20218;-63
2023/05/27 09:52:20;;;;;;;7.90;5.07;;;30.80;28.40;;;39.01;15.76;102720.56;5044232;28;20225;-65
2023/05/27 09:54:49;;;;;;;13.93;5.28;;;31.20;27.50;;;39.11;15.73;102726.59;5056072;28;20716;-65
2023/05/27 09:57:17;;;;;;;11.73;4.68;;;31.30;27.40;;;39.10;15.59;102713.94;5055943;28;20198;-64
2023/05/27 09:59:47;;;;;;;7.47;5.10;;;31.60;27.80;;;39.40;15.54;102717.78;5055912;28;20623;-64
2023/05/27 10:02:30;;;;;;;9.45;5.65;;;31.70;26.90;;;39.61;15.54;102707.78;5052426;28;20619;-67
2023/05/27 10:05:09;;;;;;;11.43;5.40;;;32.00;27.00;;;39.86;15.52;102703.41;5047946;28;20267;-64
2023/05/27 10:07:38;;;;;;;9.13;5.45;;;32.10;26.90;;;40.39;15.04;102711.34;5055841;28;20192;-65
2023/05/27 10:10:26;;;;;;;9.48;4.97;;;32.30;27.40;;;40.89;14.75;102701.28;5055791;28;20197;-64
2023/05/27 10:12:55;;;;;;;8.38;5.07;;;32.60;26.50;;;41.08;14.66;102700.88;5046752;28;20248;-65